Time;durP1;ratioP1;P1;durP2;ratioP2;P2;SDS_P1;SDS_P2;PMS_P1;PMS_P2;Temp;Humidity;BMP_temperature;BMP_pressure;BME280_temperature;BME280_humidity;BME280_pressure;Samples;Min_cycle;Max_cycle;Signal;HPM_P1;HPM_P2
2023/08/18 00:00:14;;;;;;;5.88;1.20;;;17.00;99.90;;;;;;5045731;28;20048;-69
2023/08/18 00:02:40;;;;;;;3.15;1.23;;;17.00;99.90;;;;;;5032474;28;20380;-70
2023/08/18 00:05:07;;;;;;;2.63;1.25;;;17.00;99.90;;;;;;5038910;28;20103;-70
2023/08/18 00:07:33;;;;;;;2.28;1.00;;;17.00;99.90;;;;;;5034349;28;20046;-72
2023/08/18 00:10:03;;;;;;;3.80;1.30;;;17.00;99.90;;;;;;5019593;28;20498;-71
2023/08/18 00:12:29;;;;;;;5.63;1.33;;;17.00;99.90;;;;;;5019279;28;20510;-71
2023/08/18 00:14:58;;;;;;;5.20;1.10;;;16.90;99.90;;;;;;5039914;28;20098;-70
2023/08/18 00:17:24;;;;;;;2.97;1.08;;;16.90;99.90;;;;;;5048501;28;20049;-70
2023/08/18 00:19:49;;;;;;;3.17;1.35;;;16.90;99.90;;;;;;5040977;28;20482;-70
2023/08/18 00:22:15;;;;;;;4.82;1.42;;;16.90;99.90;;;;;;5041753;28;20138;-70
2023/08/18 00:24:41;;;;;;;3.17;1.40;;;16.90;99.90;;;;;;5040804;28;20048;-70
2023/08/18 00:27:07;;;;;;;3.88;1.38;;;16.90;99.90;;;;;;5018134;28;20110;-71
2023/08/18 00:29:32;;;;;;;4.32;1.90;;;16.90;99.90;;;;;;5069850;28;20049;-71
2023/08/18 00:31:59;;;;;;;3.35;1.40;;;16.90;99.90;;;;;;5044016;28;20129;-71
2023/08/18 00:34:25;;;;;;;4.70;1.35;;;16.90;99.90;;;;;;5043613;28;20045;-68
2023/08/18 00:36:51;;;;;;;6.30;1.40;;;16.90;99.90;;;;;;5044862;28;20536;-70
2023/08/18 00:39:17;;;;;;;3.25;1.02;;;16.90;99.90;;;;;;5041231;28;20756;-69
2023/08/18 00:41:43;;;;;;;6.90;1.38;;;16.90;99.90;;;;;;5044870;28;20124;-70
2023/08/18 00:44:09;;;;;;;5.10;1.50;;;16.90;99.90;;;;;;5027865;28;20044;-70
2023/08/18 00:46:35;;;;;;;5.28;1.42;;;16.90;99.90;;;;;;5043162;28;20063;-70
2023/08/18 00:49:04;;;;;;;4.20;1.55;;;16.90;99.90;;;;;;5043857;28;20439;-70
2023/08/18 00:51:32;;;;;;;4.57;1.40;;;16.80;99.90;;;;;;5044930;28;20052;-70
2023/08/18 00:53:58;;;;;;;3.13;1.30;;;16.90;99.90;;;;;;5041273;28;20037;-70
2023/08/18 00:56:24;;;;;;;3.45;1.45;;;16.80;99.90;;;;;;5025348;28;20157;-70
2023/08/18 00:58:50;;;;;;;3.30;1.40;;;16.80;99.90;;;;;;5044912;28;20575;-69
2023/08/18 01:01:16;;;;;;;4.05;1.50;;;16.70;99.90;;;;;;5026922;28;20056;-70
2023/08/18 01:03:43;;;;;;;3.80;1.23;;;16.70;99.90;;;;;;5041937;28;20128;-69
2023/08/18 01:06:09;;;;;;;4.43;1.42;;;16.70;99.90;;;;;;5043338;28;20211;-70
2023/08/18 01:08:34;;;;;;;6.63;1.40;;;16.70;99.90;;;;;;5042686;28;20182;-70
2023/08/18 01:11:39;;;;;;;5.30;1.40;;;16.70;99.90;;;;;;5040625;28;20041;-71
2023/08/18 01:14:10;;;;;;;4.25;1.45;;;16.70;99.90;;;;;;5048417;28;20048;-70
2023/08/18 01:16:38;;;;;;;5.85;1.50;;;16.70;99.90;;;;;;5027083;28;20048;-70
2023/08/18 01:19:06;;;;;;;2.90;1.30;;;16.70;99.90;;;;;;5040671;28;20057;-70
2023/08/18 01:21:33;;;;;;;4.07;1.48;;;16.70;99.90;;;;;;5041167;28;20525;-69
2023/08/18 01:24:03;;;;;;;2.88;1.25;;;16.60;99.90;;;;;;5036219;28;20044;-72
2023/08/18 01:26:29;;;;;;;6.05;1.40;;;16.70;99.90;;;;;;5034666;28;20041;-72
2023/08/18 01:28:54;;;;;;;5.32;1.42;;;16.70;99.90;;;;;;5067635;28;20340;-70
2023/08/18 01:31:28;;;;;;;4.63;1.30;;;16.70;99.90;;;;;;5056681;28;20032;-69
2023/08/18 01:34:00;;;;;;;5.10;1.88;;;16.60;99.90;;;;;;5068426;28;20041;-69
2023/08/18 01:36:32;;;;;;;4.32;1.42;;;16.60;99.90;;;;;;5040714;28;20526;-69
2023/08/18 01:39:00;;;;;;;3.40;1.20;;;16.70;99.90;;;;;;5022014;28;20136;-69
2023/08/18 01:41:27;;;;;;;4.68;1.42;;;16.70;99.90;;;;;;5022819;28;20533;-69
2023/08/18 01:43:52;;;;;;;6.03;1.75;;;16.70;99.90;;;;;;5039123;28;20048;-69
2023/08/18 01:46:18;;;;;;;4.20;1.23;;;16.70;99.90;;;;;;5058589;28;20036;-70
2023/08/18 01:48:44;;;;;;;3.05;1.40;;;16.70;99.90;;;;;;5044622;28;20346;-70
2023/08/18 01:51:10;;;;;;;7.07;1.75;;;16.70;99.90;;;;;;5041630;28;20033;-70
2023/08/18 01:53:36;;;;;;;3.47;1.42;;;16.60;99.90;;;;;;5021289;28;20545;-70
2023/08/18 01:56:05;;;;;;;5.93;1.27;;;16.70;99.90;;;;;;5042847;28;20033;-70
2023/08/18 01:58:30;;;;;;;4.18;1.50;;;16.70;99.90;;;;;;5044134;28;20045;-70
2023/08/18 02:00:57;;;;;;;5.88;1.60;;;16.60;99.90;;;;;;5043701;28;20072;-70
2023/08/18 02:03:24;;;;;;;4.60;1.60;;;16.70;99.90;;;;;;5040070;28;20047;-70
2023/08/18 02:05:52;;;;;;;4.13;1.33;;;16.70;99.90;;;;;;5059026;28;20170;-70
2023/08/18 02:08:19;;;;;;;3.83;1.60;;;16.70;99.90;;;;;;5043279;28;20045;-69
2023/08/18 02:10:44;;;;;;;3.13;1.40;;;16.70;99.90;;;;;;5040323;28;20049;-70
2023/08/18 02:13:10;;;;;;;4.82;1.50;;;16.60;99.90;;;;;;5043664;28;20048;-70
2023/08/18 02:15:36;;;;;;;4.30;1.70;;;16.70;99.90;;;;;;5043573;28;20048;-70
2023/08/18 02:18:02;;;;;;;4.00;1.83;;;16.70;99.90;;;;;;5071530;28;20059;-71
2023/08/18 02:20:27;;;;;;;4.22;1.90;;;16.60;99.90;;;;;;5037751;28;20052;-70
2023/08/18 02:22:53;;;;;;;7.20;1.98;;;16.60;99.90;;;;;;5038478;28;20052;-71
2023/08/18 02:25:21;;;;;;;4.65;2.05;;;16.60;99.90;;;;;;5015245;28;20403;-71
2023/08/18 02:27:46;;;;;;;4.68;2.30;;;16.60;99.90;;;;;;5029512;28;20052;-70
2023/08/18 02:30:12;;;;;;;7.32;2.83;;;16.60;99.90;;;;;;5029537;28;20052;-72
2023/08/18 02:32:38;;;;;;;5.80;2.72;;;16.50;99.90;;;;;;5044133;28;20693;-71
2023/08/18 02:35:04;;;;;;;4.90;2.72;;;16.60;99.90;;;;;;5042984;28;20723;-72
2023/08/18 02:37:30;;;;;;;6.97;2.70;;;16.50;99.90;;;;;;5043685;28;20041;-72
2023/08/18 02:39:56;;;;;;;4.35;2.30;;;16.50;99.90;;;;;;5040721;28;20060;-71
2023/08/18 02:42:21;;;;;;;4.95;2.40;;;16.50;99.90;;;;;;5042442;28;20073;-73
2023/08/18 02:44:47;;;;;;;5.47;2.90;;;16.50;99.90;;;;;;5043979;28;20080;-72
2023/08/18 02:47:13;;;;;;;5.18;2.50;;;16.50;99.90;;;;;;5039557;28;20490;-71
2023/08/18 02:49:39;;;;;;;4.97;2.78;;;16.50;99.90;;;;;;5041151;28;20048;-72
2023/08/18 02:52:05;;;;;;;9.00;3.30;;;16.50;99.90;;;;;;5042341;28;20057;-72
2023/08/18 02:54:31;;;;;;;4.82;2.63;;;16.50;99.90;;;;;;5041580;28;20593;-72
2023/08/18 02:56:58;;;;;;;6.85;3.00;;;16.50;99.90;;;;;;5042375;28;20040;-72
2023/08/18 02:59:23;;;;;;;6.63;3.00;;;16.50;99.90;;;;;;5036866;28;20451;-72
2023/08/18 03:01:49;;;;;;;6.53;2.92;;;16.50;99.90;;;;;;5038770;28;20127;-71
2023/08/18 03:04:15;;;;;;;5.47;3.17;;;16.40;99.90;;;;;;5053739;28;20047;-72
2023/08/18 03:06:41;;;;;;;6.47;3.08;;;16.40;99.90;;;;;;5043075;28;20148;-71
2023/08/18 03:09:07;;;;;;;5.85;3.28;;;16.40;99.90;;;;;;5041824;28;20037;-71
2023/08/18 03:11:33;;;;;;;5.40;2.60;;;16.40;99.90;;;;;;5040652;28;20048;-71
2023/08/18 03:13:59;;;;;;;10.00;3.63;;;16.40;99.90;;;;;;5026202;28;20044;-71
2023/08/18 03:16:25;;;;;;;6.28;3.00;;;16.40;99.90;;;;;;5026351;28;20037;-71
2023/08/18 03:18:50;;;;;;;6.97;3.42;;;16.40;99.90;;;;;;5043960;28;20057;-72
2023/08/18 03:21:16;;;;;;;6.78;3.10;;;16.40;99.90;;;;;;5040644;28;20048;-71
2023/08/18 03:23:42;;;;;;;6.43;3.67;;;16.40;99.90;;;;;;5043305;28;20048;-72
2023/08/18 03:26:07;;;;;;;6.10;3.17;;;16.40;99.90;;;;;;5043257;28;20041;-72
2023/08/18 03:28:37;;;;;;;6.28;3.38;;;16.40;99.90;;;;;;5025729;28;20413;-72
2023/08/18 03:31:07;;;;;;;8.65;3.47;;;16.40;99.90;;;;;;5041587;28;20045;-72
2023/08/18 03:33:34;;;;;;;5.72;3.50;;;16.40;99.90;;;;;;5041725;28;20746;-73
2023/08/18 03:36:00;;;;;;;6.32;3.22;;;16.40;99.90;;;;;;5042900;28;21260;-73
2023/08/18 03:38:26;;;;;;;5.85;3.10;;;16.40;99.90;;;;;;5029888;28;20044;-73
2023/08/18 03:41:18;;;;;;;9.05;3.67;;;16.40;99.90;;;;;;5045315;28;20528;-72
2023/08/18 03:43:44;;;;;;;7.65;3.80;;;16.40;99.90;;;;;;5040271;28;20060;-72
2023/08/18 03:46:25;;;;;;;5.82;3.15;;;16.40;99.90;;;;;;5046285;28;20045;-71
2023/08/18 03:48:51;;;;;;;7.57;3.85;;;16.40;99.90;;;;;;5045200;28;20044;-71
2023/08/18 03:51:17;;;;;;;7.60;4.22;;;16.40;99.90;;;;;;5046076;28;20127;-70
2023/08/18 03:53:43;;;;;;;8.82;4.30;;;16.40;99.90;;;;;;5045159;28;20523;-70
2023/08/18 03:56:09;;;;;;;8.10;3.67;;;16.40;99.90;;;;;;5029569;28;20061;-70
2023/08/18 03:58:36;;;;;;;11.80;4.13;;;16.40;99.90;;;;;;5045789;28;20068;-70
2023/08/18 04:01:04;;;;;;;6.60;3.80;;;16.40;99.90;;;;;;5027994;28;20067;-70
2023/08/18 04:03:31;;;;;;;6.43;3.83;;;16.40;99.90;;;;;;5044629;28;20044;-72
2023/08/18 04:05:56;;;;;;;12.10;4.20;;;16.40;99.90;;;;;;5045246;28;20055;-72
2023/08/18 04:08:22;;;;;;;7.32;3.60;;;16.40;99.90;;;;;;5045827;28;20037;-72
2023/08/18 04:10:48;;;;;;;7.63;3.80;;;16.40;99.90;;;;;;5028366;28;20171;-72
2023/08/18 04:13:14;;;;;;;7.18;3.95;;;16.50;99.90;;;;;;5046228;28;20049;-70
2023/08/18 04:15:41;;;;;;;9.25;4.03;;;16.50;99.90;;;;;;5044578;28;20802;-71
2023/08/18 04:18:07;;;;;;;10.55;4.05;;;16.50;99.90;;;;;;5044976;28;20045;-70
2023/08/18 04:20:34;;;;;;;10.05;4.43;;;16.50;99.90;;;;;;5046348;28;20040;-70
2023/08/18 04:23:00;;;;;;;8.68;4.00;;;16.60;99.90;;;;;;5045005;28;20127;-70
2023/08/18 04:25:26;;;;;;;8.57;3.85;;;16.60;99.90;;;;;;5027346;28;20190;-71
2023/08/18 04:27:52;;;;;;;10.20;4.45;;;16.60;99.90;;;;;;5045469;28;20387;-70
2023/08/18 04:30:18;;;;;;;8.45;3.60;;;16.60;99.90;;;;;;5044393;28;20043;-72
2023/08/18 04:32:43;;;;;;;8.52;4.10;;;16.60;99.90;;;;;;5042030;28;21815;-72
2023/08/18 04:35:10;;;;;;;9.20;3.95;;;16.60;99.90;;;;;;5027709;28;20497;-72
2023/08/18 04:37:37;;;;;;;8.45;3.97;;;16.60;99.90;;;;;;5043871;28;20045;-71
2023/08/18 04:40:04;;;;;;;8.30;3.58;;;16.60;99.90;;;;;;5047057;28;20560;-70
2023/08/18 04:42:30;;;;;;;7.43;3.42;;;16.60;99.90;;;;;;5043997;28;20094;-70
2023/08/18 04:44:56;;;;;;;7.70;3.20;;;16.70;99.90;;;;;;5046389;28;20528;-69
2023/08/18 04:47:22;;;;;;;8.60;3.58;;;16.70;99.90;;;;;;5044111;28;20073;-70
2023/08/18 04:49:47;;;;;;;7.82;3.78;;;16.70;99.90;;;;;;5045685;28;20391;-70
2023/08/18 04:52:14;;;;;;;7.97;3.50;;;16.70;99.90;;;;;;5043012;28;20048;-69
2023/08/18 04:54:40;;;;;;;8.88;3.22;;;16.70;99.90;;;;;;5043127;28;20449;-70
2023/08/18 04:57:07;;;;;;;13.98;4.38;;;16.70;99.90;;;;;;5043946;28;20037;-72
2023/08/18 04:59:33;;;;;;;7.90;4.18;;;16.70;99.90;;;;;;5045273;28;20087;-70
2023/08/18 05:01:59;;;;;;;9.77;3.70;;;16.80;99.90;;;;;;5027212;28;20596;-70
2023/08/18 05:04:25;;;;;;;8.20;3.72;;;16.70;99.90;;;;;;5044307;28;20230;-71
2023/08/18 05:06:51;;;;;;;9.13;4.43;;;16.70;99.90;;;;;;5045395;28;20044;-70
2023/08/18 05:09:17;;;;;;;10.10;3.90;;;16.70;99.90;;;;;;5028151;28;20045;-71
2023/08/18 05:11:43;;;;;;;11.07;4.20;;;16.70;99.90;;;;;;5044343;28;20045;-70
2023/08/18 05:14:08;;;;;;;9.07;4.18;;;16.70;99.90;;;;;;5043050;28;20386;-70
2023/08/18 05:16:34;;;;;;;11.43;4.20;;;16.80;99.90;;;;;;5044483;28;20135;-70
2023/08/18 05:19:01;;;;;;;11.02;4.60;;;16.70;99.90;;;;;;5044349;28;20041;-71
2023/08/18 05:21:27;;;;;;;13.30;4.07;;;16.80;99.90;;;;;;5041827;28;20045;-70
2023/08/18 05:23:53;;;;;;;10.15;4.57;;;16.80;99.90;;;;;;5027186;28;20437;-70
2023/08/18 05:26:18;;;;;;;11.88;4.10;;;16.80;99.90;;;;;;5043690;28;20230;-71
2023/08/18 05:28:44;;;;;;;8.25;4.30;;;16.80;99.90;;;;;;5044395;28;20045;-70
2023/08/18 05:31:11;;;;;;;10.63;4.72;;;16.80;99.90;;;;;;5042007;28;20098;-70
2023/08/18 05:33:37;;;;;;;15.73;4.97;;;16.80;99.90;;;;;;5026182;28;20115;-70
2023/08/18 05:36:05;;;;;;;12.07;4.95;;;16.80;99.90;;;;;;5044176;28;20059;-72
2023/08/18 05:38:31;;;;;;;10.98;4.45;;;16.90;99.90;;;;;;5043243;28;20044;-71
2023/08/18 05:41:11;;;;;;;12.43;5.28;;;16.90;99.90;;;;;;5043119;28;20044;-70
2023/08/18 05:43:38;;;;;;;12.20;4.82;;;16.80;99.90;;;;;;5023756;28;20049;-70
2023/08/18 05:46:04;;;;;;;12.15;5.35;;;16.90;99.90;;;;;;5042497;28;20198;-71
2023/08/18 05:48:32;;;;;;;9.68;4.55;;;16.80;99.90;;;;;;5026050;28;20033;-70
2023/08/18 05:50:58;;;;;;;10.75;5.13;;;16.90;99.90;;;;;;5044080;28;20049;-70
2023/08/18 05:53:24;;;;;;;13.88;5.30;;;16.90;99.90;;;;;;5027716;28;20045;-70
2023/08/18 05:55:50;;;;;;;13.40;5.10;;;16.90;99.90;;;;;;5042926;28;20405;-70
2023/08/18 05:58:16;;;;;;;12.73;5.28;;;16.90;99.90;;;;;;5043226;28;20045;-70
2023/08/18 06:00:42;;;;;;;12.25;5.25;;;16.90;99.90;;;;;;5040692;28;20052;-70
2023/08/18 06:03:08;;;;;;;12.07;5.57;;;16.90;99.90;;;;;;5050251;28;20082;-71
2023/08/18 06:05:34;;;;;;;11.93;4.65;;;16.90;99.90;;;;;;5035215;28;20083;-71
2023/08/18 06:08:03;;;;;;;16.90;5.15;;;16.90;99.90;;;;;;5037029;28;20397;-71
2023/08/18 06:10:29;;;;;;;10.07;4.63;;;16.90;99.90;;;;;;5028803;28;20526;-71
2023/08/18 06:12:55;;;;;;;11.73;4.70;;;17.00;99.90;;;;;;5039707;28;20090;-70
2023/08/18 06:15:22;;;;;;;13.75;5.72;;;16.90;99.90;;;;;;5032817;28;20041;-71
2023/08/18 06:17:49;;;;;;;9.93;4.78;;;16.90;99.90;;;;;;5032527;28;20045;-71
2023/08/18 06:20:14;;;;;;;14.90;5.15;;;17.00;99.90;;;;;;5040319;28;20056;-71
2023/08/18 06:22:40;;;;;;;11.27;5.22;;;17.00;99.90;;;;;;5041521;28;20106;-71
2023/08/18 06:25:07;;;;;;;11.45;4.80;;;17.00;99.90;;;;;;5041432;28;20588;-71
2023/08/18 06:27:33;;;;;;;11.90;5.13;;;17.00;99.90;;;;;;5037001;28;20041;-71
2023/08/18 06:29:59;;;;;;;11.85;6.15;;;17.00;99.90;;;;;;5021629;28;20056;-70
2023/08/18 06:32:24;;;;;;;12.05;5.47;;;17.00;99.90;;;;;;5041814;28;20040;-71
2023/08/18 06:34:51;;;;;;;12.48;4.97;;;17.00;99.90;;;;;;5039826;28;20155;-72
2023/08/18 06:37:18;;;;;;;10.60;4.75;;;17.00;99.90;;;;;;5024403;28;20048;-73
2023/08/18 06:39:43;;;;;;;12.00;5.30;;;17.00;99.90;;;;;;5038566;28;20167;-73
2023/08/18 06:42:09;;;;;;;13.73;4.93;;;17.00;99.90;;;;;;5040057;28;20073;-73
2023/08/18 06:44:35;;;;;;;9.27;4.50;;;17.10;99.90;;;;;;5041405;28;20041;-72
2023/08/18 06:47:04;;;;;;;11.68;4.75;;;17.10;99.90;;;;;;5035216;28;20045;-73
2023/08/18 06:49:30;;;;;;;18.45;5.00;;;17.10;99.90;;;;;;5042951;28;20051;-73
2023/08/18 06:51:56;;;;;;;11.98;5.05;;;17.10;99.90;;;;;;5021035;28;20683;-72
2023/08/18 06:54:21;;;;;;;11.73;4.70;;;17.10;99.90;;;;;;5040366;28;20040;-73
2023/08/18 06:56:47;;;;;;;10.23;4.22;;;17.10;99.90;;;;;;5040393;28;20287;-73
2023/08/18 06:59:13;;;;;;;10.07;4.60;;;17.10;99.90;;;;;;5040612;28;20140;-73
2023/08/18 07:01:41;;;;;;;8.88;4.57;;;17.20;99.90;;;;;;5024215;28;20052;-73
2023/08/18 07:04:08;;;;;;;9.65;4.55;;;17.20;99.90;;;;;;5027161;28;20049;-73
2023/08/18 07:06:34;;;;;;;10.68;4.53;;;17.20;99.90;;;;;;5041495;28;20080;-73
2023/08/18 07:09:00;;;;;;;9.48;4.15;;;17.20;99.90;;;;;;5044623;28;20037;-73
2023/08/18 07:11:26;;;;;;;8.40;4.10;;;17.20;99.90;;;;;;5044789;28;20082;-73
2023/08/18 07:13:52;;;;;;;11.15;4.43;;;17.30;99.90;;;;;;5044209;28;20041;-73
2023/08/18 07:16:18;;;;;;;11.52;4.90;;;17.30;99.90;;;;;;5042562;28;20586;-73
2023/08/18 07:18:43;;;;;;;10.02;4.25;;;17.30;99.90;;;;;;5039205;28;21033;-73
2023/08/18 07:21:09;;;;;;;11.40;4.28;;;17.30;99.90;;;;;;5042863;28;20048;-73
2023/08/18 07:23:35;;;;;;;12.20;4.47;;;17.30;99.90;;;;;;5037094;28;20045;-72
2023/08/18 07:26:03;;;;;;;10.13;4.43;;;17.40;99.90;;;;;;5033223;28;20041;-71
2023/08/18 07:28:28;;;;;;;9.38;4.20;;;17.40;99.90;;;;;;5024030;28;20148;-71
2023/08/18 07:30:54;;;;;;;10.43;4.30;;;17.40;99.90;;;;;;5035102;28;20045;-72
2023/08/18 07:33:20;;;;;;;9.35;4.43;;;17.50;99.90;;;;;;5016876;28;20422;-71
2023/08/18 07:35:46;;;;;;;11.80;4.55;;;17.50;99.90;;;;;;5063216;28;20067;-72
2023/08/18 07:38:12;;;;;;;9.95;4.95;;;17.50;99.90;;;;;;5040427;28;20076;-72
2023/08/18 07:40:38;;;;;;;10.20;4.85;;;17.50;99.90;;;;;;5037613;28;20033;-72
2023/08/18 07:43:04;;;;;;;10.70;5.60;;;17.50;99.90;;;;;;5046966;28;20049;-72
2023/08/18 07:45:30;;;;;;;13.98;5.68;;;17.50;99.90;;;;;;5025674;28;20036;-73
2023/08/18 07:47:57;;;;;;;16.50;5.55;;;17.50;99.90;;;;;;5037023;28;20094;-72
2023/08/18 07:50:23;;;;;;;10.35;5.28;;;17.60;99.90;;;;;;5037514;28;20040;-72
2023/08/18 07:52:49;;;;;;;10.35;4.93;;;17.60;99.90;;;;;;5033589;28;20597;-72
2023/08/18 07:55:15;;;;;;;11.45;5.35;;;17.50;99.90;;;;;;5039977;28;20051;-72
2023/08/18 07:57:41;;;;;;;9.35;5.47;;;17.60;99.90;;;;;;5040707;28;20033;-72
2023/08/18 08:00:18;;;;;;;10.57;5.65;;;17.60;99.90;;;;;;5042098;28;20045;-72
2023/08/18 08:02:45;;;;;;;13.18;6.68;;;17.60;99.90;;;;;;5037379;28;20049;-72
2023/08/18 08:05:12;;;;;;;10.88;6.50;;;17.70;99.90;;;;;;5042237;28;20128;-72
2023/08/18 08:07:40;;;;;;;14.77;6.78;;;17.70;99.90;;;;;;5045852;28;20041;-73
2023/08/18 08:10:06;;;;;;;12.57;6.38;;;17.70;99.90;;;;;;5043796;28;20045;-72
2023/08/18 08:12:34;;;;;;;14.30;6.90;;;17.70;99.90;;;;;;5041966;28;20128;-72
2023/08/18 08:15:03;;;;;;;11.85;6.15;;;17.70;99.90;;;;;;5042617;28;20128;-72
2023/08/18 08:17:30;;;;;;;16.98;7.00;;;17.70;99.90;;;;;;5025006;28;22241;-72
2023/08/18 08:19:56;;;;;;;15.27;6.55;;;17.80;99.90;;;;;;5036434;28;20135;-70
2023/08/18 08:22:23;;;;;;;12.35;6.07;;;17.70;99.90;;;;;;5040318;28;20033;-71
2023/08/18 08:24:50;;;;;;;13.43;6.80;;;17.70;99.90;;;;;;5044874;28;20075;-71
2023/08/18 08:27:17;;;;;;;15.85;6.75;;;17.80;99.90;;;;;;5035615;28;20072;-72
2023/08/18 08:29:43;;;;;;;12.60;6.82;;;17.80;99.90;;;;;;5030912;28;20494;-74
2023/08/18 08:32:09;;;;;;;15.38;6.82;;;17.80;99.90;;;;;;5038931;28;20144;-72
2023/08/18 08:34:39;;;;;;;15.52;6.88;;;17.80;99.90;;;;;;5021238;28;20103;-73
2023/08/18 08:37:05;;;;;;;12.07;6.00;;;17.80;99.90;;;;;;5066670;28;21346;-72
2023/08/18 08:39:30;;;;;;;13.02;6.18;;;17.90;99.90;;;;;;5035941;28;20110;-72
2023/08/18 08:41:56;;;;;;;13.07;6.78;;;17.90;99.90;;;;;;5038325;28;20052;-72
2023/08/18 08:44:23;;;;;;;14.27;5.75;;;18.00;99.90;;;;;;5070957;28;20045;-73
2023/08/18 08:46:49;;;;;;;17.60;6.38;;;18.00;99.90;;;;;;5037515;28;20145;-72
2023/08/18 08:49:15;;;;;;;13.68;6.55;;;18.10;99.90;;;;;;5041735;28;20255;-72
2023/08/18 08:51:44;;;;;;;16.27;6.90;;;18.10;99.90;;;;;;5071006;28;20044;-72
2023/08/18 08:54:13;;;;;;;15.52;5.95;;;18.10;99.90;;;;;;5036198;28;20128;-73
2023/08/18 08:56:42;;;;;;;18.30;6.40;;;18.10;99.90;;;;;;5069967;28;20060;-72
2023/08/18 08:59:08;;;;;;;16.40;6.55;;;18.20;99.90;;;;;;5024090;28;20123;-72
2023/08/18 09:01:35;;;;;;;15.95;6.25;;;18.10;99.90;;;;;;5031682;28;20059;-72
2023/08/18 09:04:03;;;;;;;19.25;6.90;;;18.30;99.90;;;;;;5039811;28;20485;-72
2023/08/18 09:06:29;;;;;;;17.23;6.43;;;18.30;99.90;;;;;;5036460;28;20116;-73
2023/08/18 09:08:56;;;;;;;19.80;7.13;;;18.30;99.90;;;;;;5014898;28;20119;-72
2023/08/18 09:11:41;;;;;;;21.70;7.55;;;18.30;99.90;;;;;;5049165;28;20033;-73
2023/08/18 09:14:08;;;;;;;18.67;7.28;;;18.40;99.90;;;;;;5035427;28;20048;-72
2023/08/18 09:16:34;;;;;;;27.27;7.50;;;18.40;99.90;;;;;;5017621;28;20081;-72
2023/08/18 09:19:01;;;;;;;20.90;7.78;;;18.50;99.90;;;;;;5036320;28;20164;-73
2023/08/18 09:21:27;;;;;;;23.80;7.75;;;18.50;99.90;;;;;;5038839;28;20055;-73
2023/08/18 09:23:58;;;;;;;25.52;7.93;;;18.50;99.90;;;;;;5039287;28;20053;-73
2023/08/18 09:26:25;;;;;;;26.10;8.45;;;18.60;99.90;;;;;;5069849;28;20041;-73
2023/08/18 09:28:51;;;;;;;19.55;7.10;;;18.60;99.90;;;;;;5040643;28;20041;-72
2023/08/18 09:31:21;;;;;;;20.90;6.85;;;18.60;99.90;;;;;;5037903;28;20142;-71
2023/08/18 09:33:47;;;;;;;21.50;6.68;;;18.60;99.90;;;;;;5020691;28;20037;-73
2023/08/18 09:36:14;;;;;;;17.25;5.65;;;18.60;99.90;;;;;;5041664;28;20528;-73
2023/08/18 09:38:41;;;;;;;18.40;6.47;;;18.70;99.90;;;;;;5024208;28;20078;-72
2023/08/18 09:41:08;;;;;;;19.92;6.93;;;18.70;99.90;;;;;;5038165;28;20044;-72
2023/08/18 09:43:34;;;;;;;18.65;6.35;;;18.70;99.90;;;;;;5041139;28;20618;-72
2023/08/18 09:46:03;;;;;;;17.08;6.00;;;18.80;99.90;;;;;;5042610;28;20055;-73
2023/08/18 09:48:38;;;;;;;14.65;5.07;;;18.80;99.90;;;;;;5039670;28;20051;-73
2023/08/18 09:51:08;;;;;;;15.98;5.60;;;18.90;99.90;;;;;;5040045;28;20075;-74
2023/08/18 09:53:36;;;;;;;15.00;5.35;;;18.90;99.90;;;;;;5040080;28;20045;-73
2023/08/18 09:56:08;;;;;;;14.80;4.82;;;18.90;99.90;;;;;;5039466;28;20051;-73
2023/08/18 09:58:39;;;;;;;15.32;5.68;;;19.00;99.90;;;;;;5041218;28;20055;-73
2023/08/18 10:01:08;;;;;;;11.25;4.68;;;19.00;99.90;;;;;;5040916;28;20048;-73
2023/08/18 10:03:38;;;;;;;12.07;4.90;;;19.00;99.90;;;;;;5036959;28;20042;-74
2023/08/18 10:06:07;;;;;;;11.02;4.22;;;19.00;99.90;;;;;;5030420;28;20115;-73
2023/08/18 10:08:33;;;;;;;9.00;4.35;;;19.10;99.90;;;;;;5038664;28;20328;-74
2023/08/18 10:11:01;;;;;;;9.45;4.40;;;19.10;99.90;;;;;;5039088;28;20049;-73
2023/08/18 10:13:30;;;;;;;12.65;4.70;;;19.20;99.90;;;;;;5040647;28;20824;-73
2023/08/18 10:15:56;;;;;;;10.70;4.95;;;19.10;99.90;;;;;;5038813;28;20083;-73
2023/08/18 10:18:23;;;;;;;11.73;4.70;;;19.20;99.90;;;;;;5040984;28;20072;-72
2023/08/18 10:20:53;;;;;;;9.32;4.57;;;19.30;99.90;;;;;;5039902;28;20057;-72
2023/08/18 10:23:22;;;;;;;11.10;5.15;;;19.40;99.90;;;;;;5040073;28;20099;-73
2023/08/18 10:25:52;;;;;;;10.85;5.20;;;19.40;99.90;;;;;;5039375;28;20041;-73
2023/08/18 10:28:26;;;;;;;10.80;5.05;;;19.50;99.90;;;;;;5041305;28;20048;-72
2023/08/18 10:31:11;;;;;;;11.27;5.63;;;19.60;99.90;;;;;;5035300;28;20048;-73
2023/08/18 10:33:55;;;;;;;11.32;5.43;;;19.70;99.90;;;;;;5036811;28;20056;-73
2023/08/18 10:36:29;;;;;;;10.48;5.15;;;19.70;99.90;;;;;;5021856;28;20040;-74
2023/08/18 10:38:55;;;;;;;12.32;5.80;;;19.70;99.90;;;;;;5021533;28;20083;-74
2023/08/18 10:41:25;;;;;;;9.68;5.32;;;19.80;99.90;;;;;;5040806;28;20157;-72
2023/08/18 10:43:56;;;;;;;9.57;5.63;;;19.80;99.90;;;;;;5038421;28;20083;-73
2023/08/18 10:46:42;;;;;;;13.52;5.35;;;19.80;99.90;;;;;;5036107;28;20123;-73
2023/08/18 10:49:07;;;;;;;10.77;5.68;;;19.90;99.90;;;;;;5037400;28;20114;-73
2023/08/18 10:51:34;;;;;;;11.23;5.50;;;19.90;99.90;;;;;;5040920;28;20056;-72
2023/08/18 10:53:59;;;;;;;11.63;5.50;;;19.90;99.90;;;;;;5025220;28;20414;-73
2023/08/18 10:56:25;;;;;;;13.10;6.30;;;20.00;99.90;;;;;;5039437;28;20075;-73
2023/08/18 10:58:51;;;;;;;12.00;5.90;;;20.00;99.90;;;;;;5039593;28;20041;-73
2023/08/18 11:01:19;;;;;;;9.05;5.30;;;20.00;99.90;;;;;;5043325;28;20036;-74
2023/08/18 11:03:45;;;;;;;11.45;6.07;;;20.00;99.90;;;;;;5042144;28;20048;-73
2023/08/18 11:06:11;;;;;;;9.20;5.15;;;20.10;99.90;;;;;;5041379;28;20057;-74
2023/08/18 11:08:37;;;;;;;10.32;6.22;;;20.10;99.90;;;;;;5037494;28;20107;-74
2023/08/18 11:11:03;;;;;;;12.05;5.57;;;20.10;99.90;;;;;;5039256;28;20059;-74
2023/08/18 11:13:29;;;;;;;10.93;5.28;;;20.20;99.90;;;;;;5039917;28;20032;-74
2023/08/18 11:15:56;;;;;;;10.93;6.38;;;20.20;99.90;;;;;;5035070;28;20053;-74
2023/08/18 11:18:22;;;;;;;10.30;5.43;;;20.10;99.90;;;;;;5037450;28;20079;-74
2023/08/18 11:20:48;;;;;;;9.50;5.68;;;20.20;99.90;;;;;;5042349;28;20160;-74
2023/08/18 11:23:14;;;;;;;11.52;6.47;;;20.30;99.90;;;;;;5042178;28;20067;-74
2023/08/18 11:25:40;;;;;;;10.63;6.07;;;20.30;99.90;;;;;;5042696;28;20033;-74
2023/08/18 11:28:06;;;;;;;10.68;6.43;;;20.40;99.90;;;;;;5041606;28;20187;-73
2023/08/18 11:30:32;;;;;;;10.57;6.65;;;20.40;99.90;;;;;;5042236;28;20036;-71
2023/08/18 11:32:58;;;;;;;15.05;6.88;;;20.50;99.90;;;;;;5042197;28;20147;-72
2023/08/18 11:35:25;;;;;;;9.85;6.75;;;20.50;99.90;;;;;;5042861;28;20124;-72
2023/08/18 11:37:52;;;;;;;9.57;6.05;;;20.50;99.90;;;;;;5044229;28;20095;-73
2023/08/18 11:40:21;;;;;;;11.82;6.75;;;20.60;99.90;;;;;;5042167;28;20041;-73
2023/08/18 11:42:48;;;;;;;11.70;7.05;;;20.60;99.90;;;;;;5025557;28;20054;-73
2023/08/18 11:45:24;;;;;;;11.35;7.05;;;20.70;99.90;;;;;;5042161;28;20049;-74
2023/08/18 11:48:01;;;;;;;14.57;7.28;;;20.70;99.90;;;;;;5041998;28;20048;-74
2023/08/18 11:50:35;;;;;;;13.27;7.00;;;20.80;99.90;;;;;;5040630;28;20038;-73
2023/08/18 11:53:03;;;;;;;9.80;6.97;;;20.80;99.90;;;;;;5027070;28;20048;-73
2023/08/18 11:55:32;;;;;;;11.80;6.78;;;20.90;99.90;;;;;;5043747;28;20695;-73
2023/08/18 11:58:02;;;;;;;12.98;6.57;;;20.90;99.90;;;;;;5045617;28;20068;-75
2023/08/18 12:00:37;;;;;;;11.38;6.63;;;21.00;99.90;;;;;;5047697;28;20041;-73
2023/08/18 12:03:04;;;;;;;12.52;7.38;;;21.10;99.90;;;;;;5047147;28;20056;-73
2023/08/18 12:05:30;;;;;;;13.57;7.35;;;21.20;99.90;;;;;;5048535;28;20579;-74
2023/08/18 12:07:59;;;;;;;13.15;6.53;;;21.30;99.90;;;;;;5046797;28;20048;-73
2023/08/18 12:10:25;;;;;;;9.43;5.90;;;21.30;99.90;;;;;;5048592;28;20064;-73
2023/08/18 12:12:57;;;;;;;11.75;6.70;;;21.30;99.90;;;;;;5047175;28;20037;-71
2023/08/18 12:15:25;;;;;;;11.43;7.35;;;21.40;99.90;;;;;;5047196;28;20214;-71
2023/08/18 12:17:52;;;;;;;10.40;7.07;;;21.40;99.90;;;;;;5047475;28;20044;-71
2023/08/18 12:20:21;;;;;;;10.45;6.57;;;21.40;99.90;;;;;;5030269;28;20040;-71
2023/08/18 12:22:51;;;;;;;11.18;6.03;;;21.40;99.90;;;;;;5029518;28;20048;-71
2023/08/18 12:25:19;;;;;;;10.55;6.80;;;21.50;99.90;;;;;;5046672;28;20037;-71
2023/08/18 12:27:48;;;;;;;12.85;6.70;;;21.50;99.90;;;;;;5047071;28;20378;-71
2023/08/18 12:30:16;;;;;;;10.05;6.00;;;21.60;99.90;;;;;;5047727;28;20047;-71
2023/08/18 12:32:44;;;;;;;12.23;6.75;;;21.60;99.90;;;;;;5046129;28;20045;-70
2023/08/18 12:35:10;;;;;;;12.43;6.45;;;21.70;99.90;;;;;;5046863;28;20045;-71
2023/08/18 12:37:36;;;;;;;9.95;6.25;;;21.70;99.90;;;;;;5047064;28;20053;-71
2023/08/18 12:40:05;;;;;;;10.27;5.93;;;21.80;99.90;;;;;;5030534;28;20052;-71